Main page
METAR-TAF:

METAR-TAF

Airports :

Vélizy – Villacoublay Air Base

Villacoublay, France

latitude: 48-46N, longitude: 002-12E, elevation: 177 m

Current weather observation

The report was made 23 minutes ago, at 23:00 UTC
Wind 5 kt from the Northeast
Temperature 16°C
Humidity 48%
Pressure 999 hPa
Visibility 10 km or more
no clouds below 1500 m and no cumulonimbus

METAR: LFPV 222300Z AUTO 04005KT CAVOK 16/05 Q0999 NOSIG

Time: 01:23 (23:23 UTC)

Forecast

The report was made 3 hours and 23 minutes ago, at 20:00 UTC
Forecast valid from 22 at 21 UTC to 23 at 21 UTC
Wind 6 kt from the East/Northeast
Visibility 10 km or more
no clouds below 1500 m and no cumulonimbus
Probability 30% :
Temporary
from 23 at 19 UTC to 23 at 21 UTC
Visibility: 4000 m
Scattered clouds at a height of 4500 ft, Cumulonimbus.
thunderstorm, rain

TAF: LFPV 222000Z 2221/2321 06006KT CAVOK PROB30 TEMPO 2319/2321 4000 TSRA SCT045CB

Weather observations and forecasts of more than 4000 airports (METAR and TAF reports).

The available stations are represented by yellow and red dots on the map.

Hover mouse over dot to see the name of the station.

Then click to see weather observations and forecasts.

To change the map : click on the green buttons with a black cross to zoom in, on the green button with a dash to zoom out, or on the green arrows for adjacent maps.


METAR-TAF: